sensor_id;sensor_type;location;lat;lon;timestamp;P1;durP1;ratioP1;P2;durP2;ratioP2
36233;SDS011;43467;50.890;5.982;2023-04-03T00:00:55;10.15;;;4.95;;
36233;SDS011;43467;50.890;5.982;2023-04-03T00:03:22;5.57;;;4.97;;
36233;SDS011;43467;50.890;5.982;2023-04-03T00:05:48;10.88;;;5.10;;
36233;SDS011;43467;50.890;5.982;2023-04-03T00:08:14;7.07;;;4.80;;
36233;SDS011;43467;50.890;5.982;2023-04-03T00:10:39;5.90;;;4.50;;
36233;SDS011;43467;50.890;5.982;2023-04-03T00:13:05;10.82;;;4.88;;
36233;SDS011;43467;50.890;5.982;2023-04-03T00:15:31;8.43;;;5.20;;
36233;SDS011;43467;50.890;5.982;2023-04-03T00:17:57;8.30;;;5.07;;
36233;SDS011;43467;50.890;5.982;2023-04-03T00:20:22;8.45;;;4.22;;
36233;SDS011;43467;50.890;5.982;2023-04-03T00:22:48;7.10;;;4.60;;
36233;SDS011;43467;50.890;5.982;2023-04-03T00:25:13;7.47;;;5.45;;
36233;SDS011;43467;50.890;5.982;2023-04-03T00:27:39;6.22;;;4.57;;
36233;SDS011;43467;50.890;5.982;2023-04-03T00:30:06;7.93;;;4.68;;
36233;SDS011;43467;50.890;5.982;2023-04-03T00:32:35;9.60;;;4.57;;
36233;SDS011;43467;50.890;5.982;2023-04-03T00:35:00;6.75;;;4.82;;
36233;SDS011;43467;50.890;5.982;2023-04-03T00:37:25;8.45;;;5.03;;
36233;SDS011;43467;50.890;5.982;2023-04-03T00:39:51;7.55;;;5.20;;
36233;SDS011;43467;50.890;5.982;2023-04-03T00:42:16;7.05;;;4.80;;
36233;SDS011;43467;50.890;5.982;2023-04-03T00:47:11;8.20;;;5.07;;
36233;SDS011;43467;50.890;5.982;2023-04-03T00:49:38;9.50;;;4.82;;
36233;SDS011;43467;50.890;5.982;2023-04-03T00:52:05;6.75;;;5.03;;
36233;SDS011;43467;50.890;5.982;2023-04-03T00:54:34;9.25;;;5.22;;
36233;SDS011;43467;50.890;5.982;2023-04-03T00:57:02;8.40;;;5.40;;
36233;SDS011;43467;50.890;5.982;2023-04-03T00:59:31;8.38;;;4.75;;
36233;SDS011;43467;50.890;5.982;2023-04-03T01:02:00;10.25;;;5.20;;
36233;SDS011;43467;50.890;5.982;2023-04-03T01:04:37;7.78;;;4.80;;
36233;SDS011;43467;50.890;5.982;2023-04-03T01:07:08;9.48;;;5.22;;
36233;SDS011;43467;50.890;5.982;2023-04-03T01:09:40;6.78;;;4.57;;
36233;SDS011;43467;50.890;5.982;2023-04-03T01:12:17;7.60;;;5.10;;
36233;SDS011;43467;50.890;5.982;2023-04-03T01:14:57;5.93;;;4.70;;
36233;SDS011;43467;50.890;5.982;2023-04-03T01:17:31;6.85;;;4.63;;
36233;SDS011;43467;50.890;5.982;2023-04-03T01:25:31;6.82;;;5.10;;
36233;SDS011;43467;50.890;5.982;2023-04-03T01:27:58;10.00;;;5.30;;
36233;SDS011;43467;50.890;5.982;2023-04-03T01:30:24;7.22;;;5.15;;
36233;SDS011;43467;50.890;5.982;2023-04-03T01:32:55;11.05;;;5.55;;
36233;SDS011;43467;50.890;5.982;2023-04-03T01:35:21;12.23;;;5.07;;
36233;SDS011;43467;50.890;5.982;2023-04-03T01:37:47;5.03;;;4.53;;
36233;SDS011;43467;50.890;5.982;2023-04-03T01:40:12;5.63;;;4.82;;
36233;SDS011;43467;50.890;5.982;2023-04-03T01:42:37;9.15;;;4.80;;
36233;SDS011;43467;50.890;5.982;2023-04-03T01:45:03;7.32;;;4.53;;
36233;SDS011;43467;50.890;5.982;2023-04-03T01:47:28;8.13;;;5.05;;
36233;SDS011;43467;50.890;5.982;2023-04-03T01:49:54;8.93;;;5.40;;
36233;SDS011;43467;50.890;5.982;2023-04-03T01:52:19;10.55;;;5.38;;
36233;SDS011;43467;50.890;5.982;2023-04-03T01:54:45;6.80;;;4.93;;
36233;SDS011;43467;50.890;5.982;2023-04-03T01:57:10;8.10;;;5.15;;
36233;SDS011;43467;50.890;5.982;2023-04-03T01:59:35;6.25;;;5.00;;
36233;SDS011;43467;50.890;5.982;2023-04-03T02:02:01;10.45;;;4.68;;
36233;SDS011;43467;50.890;5.982;2023-04-03T02:04:26;5.90;;;5.20;;
36233;SDS011;43467;50.890;5.982;2023-04-03T02:06:51;11.40;;;5.45;;
36233;SDS011;43467;50.890;5.982;2023-04-03T02:09:17;5.25;;;4.65;;
36233;SDS011;43467;50.890;5.982;2023-04-03T02:11:42;5.47;;;4.72;;
36233;SDS011;43467;50.890;5.982;2023-04-03T02:14:07;6.80;;;5.05;;
36233;SDS011;43467;50.890;5.982;2023-04-03T02:16:33;7.32;;;4.32;;
36233;SDS011;43467;50.890;5.982;2023-04-03T02:18:58;6.00;;;4.68;;
36233;SDS011;43467;50.890;5.982;2023-04-03T02:21:24;5.80;;;4.32;;
36233;SDS011;43467;50.890;5.982;2023-04-03T02:23:49;5.72;;;4.68;;
36233;SDS011;43467;50.890;5.982;2023-04-03T02:26:15;5.15;;;4.63;;
36233;SDS011;43467;50.890;5.982;2023-04-03T02:28:41;7.13;;;5.00;;
36233;SDS011;43467;50.890;5.982;2023-04-03T02:31:07;9.77;;;5.15;;
36233;SDS011;43467;50.890;5.982;2023-04-03T02:33:34;6.32;;;4.10;;
36233;SDS011;43467;50.890;5.982;2023-04-03T02:36:01;5.95;;;4.32;;
36233;SDS011;43467;50.890;5.982;2023-04-03T02:38:28;7.07;;;4.45;;
36233;SDS011;43467;50.890;5.982;2023-04-03T02:40:59;9.57;;;5.15;;
36233;SDS011;43467;50.890;5.982;2023-04-03T02:43:25;8.43;;;4.68;;
36233;SDS011;43467;50.890;5.982;2023-04-03T02:45:51;10.10;;;4.65;;
36233;SDS011;43467;50.890;5.982;2023-04-03T02:48:16;11.57;;;5.18;;
36233;SDS011;43467;50.890;5.982;2023-04-03T02:50:42;11.88;;;5.47;;
36233;SDS011;43467;50.890;5.982;2023-04-03T02:53:07;7.38;;;4.93;;
36233;SDS011;43467;50.890;5.982;2023-04-03T02:55:33;8.38;;;4.72;;
36233;SDS011;43467;50.890;5.982;2023-04-03T02:57:58;10.90;;;5.60;;
36233;SDS011;43467;50.890;5.982;2023-04-03T03:00:23;7.53;;;5.20;;
36233;SDS011;43467;50.890;5.982;2023-04-03T03:02:49;9.00;;;5.25;;
36233;SDS011;43467;50.890;5.982;2023-04-03T03:05:14;8.07;;;4.93;;
36233;SDS011;43467;50.890;5.982;2023-04-03T03:07:40;9.50;;;5.05;;
36233;SDS011;43467;50.890;5.982;2023-04-03T03:10:05;10.48;;;5.65;;
36233;SDS011;43467;50.890;5.982;2023-04-03T03:12:31;7.40;;;6.13;;
36233;SDS011;43467;50.890;5.982;2023-04-03T03:14:56;7.88;;;5.32;;
36233;SDS011;43467;50.890;5.982;2023-04-03T03:17:22;9.10;;;5.50;;
36233;SDS011;43467;50.890;5.982;2023-04-03T03:19:47;8.32;;;6.22;;
36233;SDS011;43467;50.890;5.982;2023-04-03T03:22:13;8.13;;;6.53;;
36233;SDS011;43467;50.890;5.982;2023-04-03T03:24:38;10.15;;;6.57;;
36233;SDS011;43467;50.890;5.982;2023-04-03T03:27:03;11.32;;;7.68;;
36233;SDS011;43467;50.890;5.982;2023-04-03T03:29:29;10.82;;;7.78;;
36233;SDS011;43467;50.890;5.982;2023-04-03T03:31:54;10.95;;;7.47;;
36233;SDS011;43467;50.890;5.982;2023-04-03T03:34:20;16.33;;;7.60;;
36233;SDS011;43467;50.890;5.982;2023-04-03T03:36:45;13.35;;;7.82;;
36233;SDS011;43467;50.890;5.982;2023-04-03T03:39:10;18.65;;;9.40;;
36233;SDS011;43467;50.890;5.982;2023-04-03T03:41:36;14.63;;;7.95;;
36233;SDS011;43467;50.890;5.982;2023-04-03T03:44:01;10.95;;;7.43;;
36233;SDS011;43467;50.890;5.982;2023-04-03T03:46:27;10.23;;;8.40;;
36233;SDS011;43467;50.890;5.982;2023-04-03T03:48:52;12.05;;;7.55;;
36233;SDS011;43467;50.890;5.982;2023-04-03T03:51:17;16.52;;;8.70;;
36233;SDS011;43467;50.890;5.982;2023-04-03T03:53:43;13.00;;;8.80;;
36233;SDS011;43467;50.890;5.982;2023-04-03T03:56:08;8.85;;;7.22;;
36233;SDS011;43467;50.890;5.982;2023-04-03T03:58:34;10.85;;;7.30;;
36233;SDS011;43467;50.890;5.982;2023-04-03T04:01:01;9.95;;;6.97;;
36233;SDS011;43467;50.890;5.982;2023-04-03T04:03:27;11.02;;;7.75;;
36233;SDS011;43467;50.890;5.982;2023-04-03T04:05:53;9.70;;;7.03;;
36233;SDS011;43467;50.890;5.982;2023-04-03T04:08:18;12.35;;;7.88;;
36233;SDS011;43467;50.890;5.982;2023-04-03T04:10:44;11.73;;;7.75;;
36233;SDS011;43467;50.890;5.982;2023-04-03T04:13:09;10.73;;;7.43;;
36233;SDS011;43467;50.890;5.982;2023-04-03T04:15:35;7.65;;;6.30;;
36233;SDS011;43467;50.890;5.982;2023-04-03T04:18:00;14.18;;;7.65;;
36233;SDS011;43467;50.890;5.982;2023-04-03T04:20:25;11.48;;;6.95;;
36233;SDS011;43467;50.890;5.982;2023-04-03T04:22:51;13.23;;;7.93;;
36233;SDS011;43467;50.890;5.982;2023-04-03T04:25:16;13.85;;;8.18;;
36233;SDS011;43467;50.890;5.982;2023-04-03T04:27:41;10.85;;;7.93;;
36233;SDS011;43467;50.890;5.982;2023-04-03T04:30:07;12.93;;;8.10;;
36233;SDS011;43467;50.890;5.982;2023-04-03T04:32:33;11.00;;;7.90;;
36233;SDS011;43467;50.890;5.982;2023-04-03T04:34:59;11.15;;;8.05;;
36233;SDS011;43467;50.890;5.982;2023-04-03T04:37:25;10.32;;;7.32;;
36233;SDS011;43467;50.890;5.982;2023-04-03T04:39:50;12.30;;;7.78;;
36233;SDS011;43467;50.890;5.982;2023-04-03T04:42:16;11.23;;;7.88;;
36233;SDS011;43467;50.890;5.982;2023-04-03T04:44:41;13.25;;;8.27;;
36233;SDS011;43467;50.890;5.982;2023-04-03T04:47:07;10.55;;;7.65;;
36233;SDS011;43467;50.890;5.982;2023-04-03T04:49:32;16.35;;;8.98;;
36233;SDS011;43467;50.890;5.982;2023-04-03T04:51:58;10.68;;;7.70;;
36233;SDS011;43467;50.890;5.982;2023-04-03T04:54:23;11.73;;;8.38;;
36233;SDS011;43467;50.890;5.982;2023-04-03T04:56:49;11.18;;;7.68;;
36233;SDS011;43467;50.890;5.982;2023-04-03T04:59:14;12.00;;;8.10;;
36233;SDS011;43467;50.890;5.982;2023-04-03T05:01:40;11.68;;;8.38;;
36233;SDS011;43467;50.890;5.982;2023-04-03T05:04:06;9.70;;;7.63;;
36233;SDS011;43467;50.890;5.982;2023-04-03T05:06:31;16.98;;;9.50;;
36233;SDS011;43467;50.890;5.982;2023-04-03T05:08:57;12.95;;;8.65;;
36233;SDS011;43467;50.890;5.982;2023-04-03T05:11:23;13.57;;;8.18;;
36233;SDS011;43467;50.890;5.982;2023-04-03T05:13:49;12.25;;;8.82;;
36233;SDS011;43467;50.890;5.982;2023-04-03T05:16:14;11.65;;;8.48;;
36233;SDS011;43467;50.890;5.982;2023-04-03T05:18:40;13.52;;;8.65;;
36233;SDS011;43467;50.890;5.982;2023-04-03T05:21:05;12.50;;;8.43;;
36233;SDS011;43467;50.890;5.982;2023-04-03T05:23:31;16.85;;;9.48;;
36233;SDS011;43467;50.890;5.982;2023-04-03T05:25:56;12.82;;;8.85;;
36233;SDS011;43467;50.890;5.982;2023-04-03T05:28:21;12.57;;;9.48;;
36233;SDS011;43467;50.890;5.982;2023-04-03T05:30:54;12.15;;;8.73;;
36233;SDS011;43467;50.890;5.982;2023-04-03T05:33:20;14.20;;;9.60;;
36233;SDS011;43467;50.890;5.982;2023-04-03T05:35:46;13.15;;;8.60;;
36233;SDS011;43467;50.890;5.982;2023-04-03T05:38:11;10.30;;;8.25;;
36233;SDS011;43467;50.890;5.982;2023-04-03T05:40:37;12.50;;;8.80;;
36233;SDS011;43467;50.890;5.982;2023-04-03T05:43:02;14.60;;;8.27;;
36233;SDS011;43467;50.890;5.982;2023-04-03T05:45:28;15.23;;;8.65;;
36233;SDS011;43467;50.890;5.982;2023-04-03T05:47:53;10.65;;;8.07;;
36233;SDS011;43467;50.890;5.982;2023-04-03T05:50:19;13.15;;;9.63;;
36233;SDS011;43467;50.890;5.982;2023-04-03T05:52:45;14.07;;;9.27;;
36233;SDS011;43467;50.890;5.982;2023-04-03T05:55:13;12.40;;;8.93;;
36233;SDS011;43467;50.890;5.982;2023-04-03T05:57:39;12.93;;;9.07;;
36233;SDS011;43467;50.890;5.982;2023-04-03T06:00:05;11.88;;;8.43;;
36233;SDS011;43467;50.890;5.982;2023-04-03T06:02:31;14.40;;;8.90;;
36233;SDS011;43467;50.890;5.982;2023-04-03T06:04:57;13.10;;;8.73;;
36233;SDS011;43467;50.890;5.982;2023-04-03T06:07:23;13.95;;;8.82;;
36233;SDS011;43467;50.890;5.982;2023-04-03T06:09:53;13.35;;;8.60;;
36233;SDS011;43467;50.890;5.982;2023-04-03T06:12:20;11.40;;;7.88;;
36233;SDS011;43467;50.890;5.982;2023-04-03T06:14:46;15.63;;;8.68;;
36233;SDS011;43467;50.890;5.982;2023-04-03T06:17:11;21.70;;;8.27;;
36233;SDS011;43467;50.890;5.982;2023-04-03T06:19:37;11.88;;;8.23;;
36233;SDS011;43467;50.890;5.982;2023-04-03T06:22:03;14.95;;;8.63;;
36233;SDS011;43467;50.890;5.982;2023-04-03T06:24:28;13.55;;;9.02;;
36233;SDS011;43467;50.890;5.982;2023-04-03T06:26:55;13.07;;;7.90;;
36233;SDS011;43467;50.890;5.982;2023-04-03T06:29:21;15.30;;;8.57;;
36233;SDS011;43467;50.890;5.982;2023-04-03T06:31:47;16.52;;;8.15;;
36233;SDS011;43467;50.890;5.982;2023-04-03T06:34:13;12.43;;;7.55;;
36233;SDS011;43467;50.890;5.982;2023-04-03T06:36:40;8.60;;;6.75;;
36233;SDS011;43467;50.890;5.982;2023-04-03T06:39:06;10.75;;;7.20;;
36233;SDS011;43467;50.890;5.982;2023-04-03T06:41:32;10.15;;;7.25;;
36233;SDS011;43467;50.890;5.982;2023-04-03T06:43:57;13.32;;;7.22;;
36233;SDS011;43467;50.890;5.982;2023-04-03T06:46:23;10.40;;;6.72;;
36233;SDS011;43467;50.890;5.982;2023-04-03T06:48:50;12.70;;;7.32;;
36233;SDS011;43467;50.890;5.982;2023-04-03T06:51:23;9.05;;;7.07;;
36233;SDS011;43467;50.890;5.982;2023-04-03T06:56:17;10.43;;;6.45;;
36233;SDS011;43467;50.890;5.982;2023-04-03T06:58:43;11.32;;;6.82;;
36233;SDS011;43467;50.890;5.982;2023-04-03T07:01:10;10.38;;;6.38;;
36233;SDS011;43467;50.890;5.982;2023-04-03T07:03:37;10.57;;;6.30;;
36233;SDS011;43467;50.890;5.982;2023-04-03T07:06:03;10.30;;;6.22;;
36233;SDS011;43467;50.890;5.982;2023-04-03T07:08:30;11.18;;;6.35;;
36233;SDS011;43467;50.890;5.982;2023-04-03T07:10:55;11.20;;;6.80;;
36233;SDS011;43467;50.890;5.982;2023-04-03T07:13:21;9.32;;;5.90;;
36233;SDS011;43467;50.890;5.982;2023-04-03T07:15:46;11.02;;;5.70;;
36233;SDS011;43467;50.890;5.982;2023-04-03T07:18:12;10.05;;;5.40;;
36233;SDS011;43467;50.890;5.982;2023-04-03T07:20:38;8.50;;;5.63;;
36233;SDS011;43467;50.890;5.982;2023-04-03T07:23:03;10.68;;;5.07;;
36233;SDS011;43467;50.890;5.982;2023-04-03T07:25:29;11.15;;;5.60;;
36233;SDS011;43467;50.890;5.982;2023-04-03T07:27:55;7.40;;;4.95;;
36233;SDS011;43467;50.890;5.982;2023-04-03T07:30:20;8.77;;;5.00;;
36233;SDS011;43467;50.890;5.982;2023-04-03T07:32:46;12.02;;;5.60;;
36233;SDS011;43467;50.890;5.982;2023-04-03T07:35:12;8.85;;;5.57;;
36233;SDS011;43467;50.890;5.982;2023-04-03T07:37:37;10.50;;;5.38;;
36233;SDS011;43467;50.890;5.982;2023-04-03T07:40:03;11.32;;;5.13;;
36233;SDS011;43467;50.890;5.982;2023-04-03T07:42:29;11.77;;;4.68;;
36233;SDS011;43467;50.890;5.982;2023-04-03T07:44:55;8.38;;;4.57;;
36233;SDS011;43467;50.890;5.982;2023-04-03T07:47:21;7.78;;;4.47;;
36233;SDS011;43467;50.890;5.982;2023-04-03T07:49:47;9.23;;;4.65;;
36233;SDS011;43467;50.890;5.982;2023-04-03T07:52:13;7.28;;;4.18;;
36233;SDS011;43467;50.890;5.982;2023-04-03T07:54:40;8.60;;;4.93;;
36233;SDS011;43467;50.890;5.982;2023-04-03T07:57:06;10.10;;;4.60;;
36233;SDS011;43467;50.890;5.982;2023-04-03T07:59:31;10.55;;;5.18;;
36233;SDS011;43467;50.890;5.982;2023-04-03T08:01:57;12.40;;;4.25;;
36233;SDS011;43467;50.890;5.982;2023-04-03T08:04:22;6.60;;;4.43;;
36233;SDS011;43467;50.890;5.982;2023-04-03T08:06:48;8.52;;;4.38;;
36233;SDS011;43467;50.890;5.982;2023-04-03T08:09:16;10.18;;;4.40;;
36233;SDS011;43467;50.890;5.982;2023-04-03T08:11:42;9.07;;;4.20;;
36233;SDS011;43467;50.890;5.982;2023-04-03T08:14:08;11.23;;;4.00;;
36233;SDS011;43467;50.890;5.982;2023-04-03T08:16:36;8.55;;;4.05;;
36233;SDS011;43467;50.890;5.982;2023-04-03T08:19:01;6.90;;;3.58;;
36233;SDS011;43467;50.890;5.982;2023-04-03T08:21:26;7.13;;;3.65;;
36233;SDS011;43467;50.890;5.982;2023-04-03T08:23:52;6.75;;;3.80;;
36233;SDS011;43467;50.890;5.982;2023-04-03T08:26:19;7.22;;;3.42;;
36233;SDS011;43467;50.890;5.982;2023-04-03T08:28:46;10.27;;;4.00;;
36233;SDS011;43467;50.890;5.982;2023-04-03T08:31:16;7.53;;;3.92;;
36233;SDS011;43467;50.890;5.982;2023-04-03T08:33:43;5.72;;;3.67;;
36233;SDS011;43467;50.890;5.982;2023-04-03T08:36:16;8.75;;;3.50;;
36233;SDS011;43467;50.890;5.982;2023-04-03T08:46:22;9.18;;;4.20;;
36233;SDS011;43467;50.890;5.982;2023-04-03T08:48:57;10.82;;;4.60;;
36233;SDS011;43467;50.890;5.982;2023-04-03T08:51:23;9.15;;;4.15;;
36233;SDS011;43467;50.890;5.982;2023-04-03T08:54:01;12.15;;;5.13;;
36233;SDS011;43467;50.890;5.982;2023-04-03T08:56:33;8.90;;;3.65;;
36233;SDS011;43467;50.890;5.982;2023-04-03T08:59:00;10.55;;;3.95;;
36233;SDS011;43467;50.890;5.982;2023-04-03T09:01:36;6.20;;;3.85;;
36233;SDS011;43467;50.890;5.982;2023-04-03T09:04:10;11.40;;;4.10;;
36233;SDS011;43467;50.890;5.982;2023-04-03T09:06:37;7.65;;;3.67;;
36233;SDS011;43467;50.890;5.982;2023-04-03T09:09:15;6.18;;;3.75;;
36233;SDS011;43467;50.890;5.982;2023-04-03T09:22:55;5.55;;;3.45;;
36233;SDS011;43467;50.890;5.982;2023-04-03T09:25:24;9.23;;;4.00;;
36233;SDS011;43467;50.890;5.982;2023-04-03T09:27:54;12.63;;;4.45;;
36233;SDS011;43467;50.890;5.982;2023-04-03T09:30:21;7.53;;;3.38;;
36233;SDS011;43467;50.890;5.982;2023-04-03T09:32:49;6.72;;;3.15;;
36233;SDS011;43467;50.890;5.982;2023-04-03T09:35:24;6.55;;;3.50;;
36233;SDS011;43467;50.890;5.982;2023-04-03T09:37:52;8.35;;;3.40;;
36233;SDS011;43467;50.890;5.982;2023-04-03T09:42:52;6.47;;;3.15;;
36233;SDS011;43467;50.890;5.982;2023-04-03T09:45:37;5.63;;;3.17;;
36233;SDS011;43467;50.890;5.982;2023-04-03T09:48:06;8.93;;;3.17;;
36233;SDS011;43467;50.890;5.982;2023-04-03T09:50:33;10.77;;;3.72;;
36233;SDS011;43467;50.890;5.982;2023-04-03T09:53:04;6.15;;;2.95;;
36233;SDS011;43467;50.890;5.982;2023-04-03T09:55:50;7.28;;;3.05;;
36233;SDS011;43467;50.890;5.982;2023-04-03T09:58:49;5.80;;;2.63;;
36233;SDS011;43467;50.890;5.982;2023-04-03T10:01:23;5.55;;;2.85;;
36233;SDS011;43467;50.890;5.982;2023-04-03T10:04:15;6.60;;;2.75;;
36233;SDS011;43467;50.890;5.982;2023-04-03T10:06:45;6.65;;;3.35;;
36233;SDS011;43467;50.890;5.982;2023-04-03T10:09:22;6.10;;;2.75;;
36233;SDS011;43467;50.890;5.982;2023-04-03T10:16:54;7.97;;;2.60;;
36233;SDS011;43467;50.890;5.982;2023-04-03T10:22:20;6.88;;;2.95;;
36233;SDS011;43467;50.890;5.982;2023-04-03T10:25:11;8.07;;;2.65;;
36233;SDS011;43467;50.890;5.982;2023-04-03T10:27:44;7.18;;;3.15;;
36233;SDS011;43467;50.890;5.982;2023-04-03T10:33:45;9.13;;;2.17;;
36233;SDS011;43467;50.890;5.982;2023-04-03T10:39:35;7.65;;;2.97;;
36233;SDS011;43467;50.890;5.982;2023-04-03T10:49:51;4.28;;;2.40;;
36233;SDS011;43467;50.890;5.982;2023-04-03T10:52:50;7.22;;;2.97;;
36233;SDS011;43467;50.890;5.982;2023-04-03T10:55:37;5.38;;;2.45;;
36233;SDS011;43467;50.890;5.982;2023-04-03T10:58:19;6.97;;;2.88;;
36233;SDS011;43467;50.890;5.982;2023-04-03T11:00:50;12.63;;;3.65;;
36233;SDS011;43467;50.890;5.982;2023-04-03T11:03:32;7.70;;;2.63;;
36233;SDS011;43467;50.890;5.982;2023-04-03T11:06:02;5.38;;;2.33;;
36233;SDS011;43467;50.890;5.982;2023-04-03T11:08:38;5.95;;;2.03;;
36233;SDS011;43467;50.890;5.982;2023-04-03T11:11:11;5.28;;;1.80;;
36233;SDS011;43467;50.890;5.982;2023-04-03T11:13:41;3.22;;;2.20;;
36233;SDS011;43467;50.890;5.982;2023-04-03T11:16:16;5.60;;;1.97;;
36233;SDS011;43467;50.890;5.982;2023-04-03T11:18:54;5.63;;;2.20;;
36233;SDS011;43467;50.890;5.982;2023-04-03T11:21:28;6.85;;;2.42;;
36233;SDS011;43467;50.890;5.982;2023-04-03T11:24:00;3.88;;;2.08;;
36233;SDS011;43467;50.890;5.982;2023-04-03T11:26:31;4.47;;;2.08;;
36233;SDS011;43467;50.890;5.982;2023-04-03T11:29:07;7.53;;;2.72;;
36233;SDS011;43467;50.890;5.982;2023-04-03T11:31:48;3.60;;;2.10;;
36233;SDS011;43467;50.890;5.982;2023-04-03T11:34:24;3.17;;;1.90;;
36233;SDS011;43467;50.890;5.982;2023-04-03T11:36:59;4.85;;;2.25;;
36233;SDS011;43467;50.890;5.982;2023-04-03T11:39:33;7.07;;;2.33;;
36233;SDS011;43467;50.890;5.982;2023-04-03T11:42:16;6.88;;;2.42;;
36233;SDS011;43467;50.890;5.982;2023-04-03T11:44:43;3.08;;;1.90;;
36233;SDS011;43467;50.890;5.982;2023-04-03T11:47:09;4.30;;;1.92;;
36233;SDS011;43467;50.890;5.982;2023-04-03T12:13:37;6.18;;;2.13;;
36233;SDS011;43467;50.890;5.982;2023-04-03T12:16:22;3.83;;;1.73;;
36233;SDS011;43467;50.890;5.982;2023-04-03T12:21:13;4.25;;;1.83;;
36233;SDS011;43467;50.890;5.982;2023-04-03T12:24:03;6.10;;;2.20;;
36233;SDS011;43467;50.890;5.982;2023-04-03T12:48:12;4.70;;;2.33;;
36233;SDS011;43467;50.890;5.982;2023-04-03T12:50:41;6.85;;;2.25;;
36233;SDS011;43467;50.890;5.982;2023-04-03T12:53:13;7.97;;;2.38;;
36233;SDS011;43467;50.890;5.982;2023-04-03T12:55:43;4.10;;;1.75;;
36233;SDS011;43467;50.890;5.982;2023-04-03T13:00:41;4.38;;;1.98;;
36233;SDS011;43467;50.890;5.982;2023-04-03T13:03:06;6.13;;;2.38;;
36233;SDS011;43467;50.890;5.982;2023-04-03T13:05:47;5.28;;;2.70;;
36233;SDS011;43467;50.890;5.982;2023-04-03T13:08:13;5.28;;;1.70;;
36233;SDS011;43467;50.890;5.982;2023-04-03T13:13:24;5.88;;;2.13;;
36233;SDS011;43467;50.890;5.982;2023-04-03T13:15:51;3.63;;;2.20;;
36233;SDS011;43467;50.890;5.982;2023-04-03T13:18:25;3.88;;;2.17;;
36233;SDS011;43467;50.890;5.982;2023-04-03T13:20:59;4.95;;;2.20;;
36233;SDS011;43467;50.890;5.982;2023-04-03T13:23:28;3.88;;;2.22;;
36233;SDS011;43467;50.890;5.982;2023-04-03T13:25:55;3.42;;;2.15;;
36233;SDS011;43467;50.890;5.982;2023-04-03T13:28:26;8.80;;;2.20;;
36233;SDS011;43467;50.890;5.982;2023-04-03T13:31:35;5.28;;;2.17;;
36233;SDS011;43467;50.890;5.982;2023-04-03T13:34:05;6.85;;;2.30;;
36233;SDS011;43467;50.890;5.982;2023-04-03T13:36:33;6.75;;;2.13;;
36233;SDS011;43467;50.890;5.982;2023-04-03T13:39:23;4.55;;;2.28;;
36233;SDS011;43467;50.890;5.982;2023-04-03T13:41:55;5.63;;;2.20;;
36233;SDS011;43467;50.890;5.982;2023-04-03T13:44:26;6.30;;;2.17;;
36233;SDS011;43467;50.890;5.982;2023-04-03T13:46:57;3.55;;;1.90;;
36233;SDS011;43467;50.890;5.982;2023-04-03T13:49:30;3.55;;;2.03;;
36233;SDS011;43467;50.890;5.982;2023-04-03T13:54:52;3.90;;;2.00;;
36233;SDS011;43467;50.890;5.982;2023-04-03T13:57:21;3.95;;;1.75;;
36233;SDS011;43467;50.890;5.982;2023-04-03T13:59:46;6.38;;;2.15;;
36233;SDS011;43467;50.890;5.982;2023-04-03T14:02:22;4.82;;;2.08;;
36233;SDS011;43467;50.890;5.982;2023-04-03T14:04:56;5.32;;;2.20;;
36233;SDS011;43467;50.890;5.982;2023-04-03T14:07:26;2.45;;;1.90;;
36233;SDS011;43467;50.890;5.982;2023-04-03T14:09:53;4.10;;;1.85;;
36233;SDS011;43467;50.890;5.982;2023-04-03T14:12:26;5.00;;;1.90;;
36233;SDS011;43467;50.890;5.982;2023-04-03T14:14:54;2.70;;;1.70;;
36233;SDS011;43467;50.890;5.982;2023-04-03T14:17:22;5.22;;;2.10;;
36233;SDS011;43467;50.890;5.982;2023-04-03T14:19:50;2.47;;;1.80;;
36233;SDS011;43467;50.890;5.982;2023-04-03T14:22:18;7.00;;;2.42;;
36233;SDS011;43467;50.890;5.982;2023-04-03T14:24:47;6.68;;;2.13;;
36233;SDS011;43467;50.890;5.982;2023-04-03T14:27:19;3.10;;;1.60;;
36233;SDS011;43467;50.890;5.982;2023-04-03T14:29:51;4.32;;;1.85;;
36233;SDS011;43467;50.890;5.982;2023-04-03T14:32:19;5.18;;;1.45;;
36233;SDS011;43467;50.890;5.982;2023-04-03T14:34:46;2.97;;;1.60;;
36233;SDS011;43467;50.890;5.982;2023-04-03T14:37:12;5.35;;;1.75;;
36233;SDS011;43467;50.890;5.982;2023-04-03T14:39:40;3.60;;;1.52;;
36233;SDS011;43467;50.890;5.982;2023-04-03T14:42:05;2.20;;;1.48;;
36233;SDS011;43467;50.890;5.982;2023-04-03T14:44:31;3.60;;;1.48;;
36233;SDS011;43467;50.890;5.982;2023-04-03T14:46:56;4.50;;;1.58;;
36233;SDS011;43467;50.890;5.982;2023-04-03T14:49:24;2.15;;;1.50;;
36233;SDS011;43467;50.890;5.982;2023-04-03T14:51:52;3.67;;;1.50;;
36233;SDS011;43467;50.890;5.982;2023-04-03T14:54:19;3.42;;;1.88;;
36233;SDS011;43467;50.890;5.982;2023-04-03T14:56:50;3.60;;;1.75;;
36233;SDS011;43467;50.890;5.982;2023-04-03T14:59:16;2.70;;;1.42;;
36233;SDS011;43467;50.890;5.982;2023-04-03T15:01:42;3.35;;;1.60;;
36233;SDS011;43467;50.890;5.982;2023-04-03T15:04:18;4.43;;;1.90;;
36233;SDS011;43467;50.890;5.982;2023-04-03T15:06:45;4.45;;;1.92;;
36233;SDS011;43467;50.890;5.982;2023-04-03T15:09:22;6.88;;;1.80;;
36233;SDS011;43467;50.890;5.982;2023-04-03T15:11:50;4.28;;;1.98;;
36233;SDS011;43467;50.890;5.982;2023-04-03T15:14:16;5.43;;;1.50;;
36233;SDS011;43467;50.890;5.982;2023-04-03T15:16:42;5.03;;;1.40;;
36233;SDS011;43467;50.890;5.982;2023-04-03T15:19:08;3.25;;;1.50;;
36233;SDS011;43467;50.890;5.982;2023-04-03T15:21:34;3.00;;;1.58;;
36233;SDS011;43467;50.890;5.982;2023-04-03T15:24:00;2.88;;;1.67;;
36233;SDS011;43467;50.890;5.982;2023-04-03T15:26:26;3.38;;;1.52;;
36233;SDS011;43467;50.890;5.982;2023-04-03T15:28:51;4.20;;;1.85;;
36233;SDS011;43467;50.890;5.982;2023-04-03T15:31:17;2.78;;;1.50;;
36233;SDS011;43467;50.890;5.982;2023-04-03T15:33:42;2.85;;;1.40;;
36233;SDS011;43467;50.890;5.982;2023-04-03T15:36:08;3.53;;;1.60;;
36233;SDS011;43467;50.890;5.982;2023-04-03T15:38:33;3.83;;;1.67;;
36233;SDS011;43467;50.890;5.982;2023-04-03T15:40:59;3.25;;;1.85;;
36233;SDS011;43467;50.890;5.982;2023-04-03T15:43:25;3.03;;;1.67;;
36233;SDS011;43467;50.890;5.982;2023-04-03T15:45:51;4.28;;;1.60;;
36233;SDS011;43467;50.890;5.982;2023-04-03T15:48:16;4.45;;;1.70;;
36233;SDS011;43467;50.890;5.982;2023-04-03T15:50:42;3.40;;;1.40;;
36233;SDS011;43467;50.890;5.982;2023-04-03T15:53:08;6.18;;;1.77;;
36233;SDS011;43467;50.890;5.982;2023-04-03T15:55:35;4.53;;;1.63;;
36233;SDS011;43467;50.890;5.982;2023-04-03T15:58:02;3.35;;;1.60;;
36233;SDS011;43467;50.890;5.982;2023-04-03T16:00:28;6.63;;;2.25;;
36233;SDS011;43467;50.890;5.982;2023-04-03T16:03:27;4.47;;;1.52;;
36233;SDS011;43467;50.890;5.982;2023-04-03T16:05:47;3.95;;;2.00;;
36233;SDS011;43467;50.890;5.982;2023-04-03T16:08:13;5.38;;;2.83;;
36233;SDS011;43467;50.890;5.982;2023-04-03T16:10:39;11.80;;;2.35;;
36233;SDS011;43467;50.890;5.982;2023-04-03T16:13:05;4.95;;;2.30;;
36233;SDS011;43467;50.890;5.982;2023-04-03T16:15:31;4.72;;;1.73;;
36233;SDS011;43467;50.890;5.982;2023-04-03T16:17:59;7.00;;;1.80;;
36233;SDS011;43467;50.890;5.982;2023-04-03T16:20:25;5.55;;;1.90;;
36233;SDS011;43467;50.890;5.982;2023-04-03T16:22:51;6.13;;;1.98;;
36233;SDS011;43467;50.890;5.982;2023-04-03T16:25:17;8.00;;;1.80;;
36233;SDS011;43467;50.890;5.982;2023-04-03T16:27:42;4.28;;;2.13;;
36233;SDS011;43467;50.890;5.982;2023-04-03T16:30:09;6.03;;;1.95;;
36233;SDS011;43467;50.890;5.982;2023-04-03T16:32:35;3.35;;;2.00;;
36233;SDS011;43467;50.890;5.982;2023-04-03T16:35:02;4.55;;;1.88;;
36233;SDS011;43467;50.890;5.982;2023-04-03T16:37:28;5.63;;;2.17;;
36233;SDS011;43467;50.890;5.982;2023-04-03T16:39:53;4.15;;;1.92;;